createdAt,value
2018-04-01T00:01:42.218Z,97030
2018-04-01T00:04:27.005Z,97030
2018-04-01T00:06:54.518Z,97024
2018-04-01T00:09:21.969Z,97030
2018-04-01T00:11:49.454Z,97034
2018-04-01T00:14:46.356Z,97030
2018-04-01T00:17:13.858Z,97034
2018-04-01T00:19:41.326Z,97020
2018-04-01T00:22:08.750Z,97035
2018-04-01T00:24:36.200Z,97030
2018-04-01T00:27:03.631Z,97026
2018-04-01T00:29:31.850Z,97027
2018-04-01T00:32:00.015Z,97033
2018-04-01T00:34:27.453Z,97035
2018-04-01T00:36:54.864Z,97031
2018-04-01T00:39:22.330Z,97029
2018-04-01T00:41:49.746Z,97045
2018-04-01T00:44:17.222Z,97040
2018-04-01T00:46:44.691Z,97037
2018-04-01T00:49:12.215Z,97043
2018-04-01T00:51:39.706Z,97047
2018-04-01T00:54:07.185Z,97043
2018-04-01T00:56:35.394Z,97043
2018-04-01T00:59:02.877Z,97043
2018-04-01T01:01:30.334Z,97044
2018-04-01T01:04:07.839Z,97044
2018-04-01T01:06:35.290Z,97046
2018-04-01T01:09:02.756Z,97046
2018-04-01T01:11:30.247Z,97062
2018-04-01T01:14:16.754Z,97048
2018-04-01T01:16:44.970Z,97051
2018-04-01T01:19:12.530Z,97054
2018-04-01T01:21:39.974Z,97045
2018-04-01T01:24:10.702Z,97054
2018-04-01T01:26:38.205Z,97052
2018-04-01T01:29:05.626Z,97046
2018-04-01T01:31:33.086Z,97060
2018-04-01T01:34:01.440Z,97061
2018-04-01T01:36:28.866Z,97053
2018-04-01T01:38:56.266Z,97057
2018-04-01T01:41:23.697Z,97058
2018-04-01T01:44:01.146Z,97062
2018-04-01T01:46:28.597Z,97060
2018-04-01T01:48:56.007Z,97067
2018-04-01T01:51:23.473Z,97067
2018-04-01T01:53:51.909Z,97067
2018-04-01T01:56:19.369Z,97066
2018-04-01T01:58:46.815Z,97060
2018-04-01T02:01:14.274Z,97057
2018-04-01T02:03:41.732Z,97073
2018-04-01T02:06:09.215Z,97078
2018-04-01T02:08:37.411Z,97079
2018-04-01T02:11:04.843Z,97083
2018-04-01T02:13:33.119Z,97082
2018-04-01T02:16:01.328Z,97086
2018-04-01T02:18:28.801Z,97090
2018-04-01T02:20:56.246Z,97094
2018-04-01T02:23:23.711Z,97098
2018-04-01T02:25:51.168Z,97101
2018-04-01T02:28:18.645Z,97105
2018-04-01T02:30:46.102Z,97105
2018-04-01T02:33:13.571Z,97107
2018-04-01T02:35:41.015Z,97107
2018-04-01T02:38:08.500Z,97100
2018-04-01T02:40:36.776Z,97100
2018-04-01T02:43:05.001Z,97117
2018-04-01T02:45:33.417Z,97105
2018-04-01T02:48:00.902Z,97111
2018-04-01T02:50:28.422Z,97103
2018-04-01T02:52:55.876Z,97103
2018-04-01T02:55:24.247Z,97088
2018-04-01T02:57:51.709Z,97104
2018-04-01T03:00:19.215Z,97105
2018-04-01T03:02:46.674Z,97102
2018-04-01T03:05:15.106Z,97107
2018-04-01T03:07:42.568Z,97095
2018-04-01T03:10:10.100Z,97104
2018-04-01T03:12:37.545Z,97107
2018-04-01T03:15:12.298Z,97109
2018-04-01T03:17:39.771Z,97109
2018-04-01T03:20:07.282Z,97117
2018-04-01T03:22:34.786Z,97119
2018-04-01T03:25:02.262Z,97105
2018-04-01T03:27:30.456Z,97110
2018-04-01T03:29:57.962Z,97121
2018-04-01T03:32:25.479Z,97121
2018-04-01T03:35:01.719Z,97133
2018-04-01T03:37:29.974Z,97122
2018-04-01T03:39:57.430Z,97128
2018-04-01T03:42:24.900Z,97124
2018-04-01T03:44:55.069Z,97135
2018-04-01T03:47:22.528Z,97132
2018-04-01T03:49:50.046Z,97149
2018-04-01T03:52:18.278Z,97144
2018-04-01T03:54:51.698Z,97155
2018-04-01T03:57:19.187Z,97156
2018-04-01T03:59:46.694Z,97155
2018-04-01T04:02:14.154Z,97152
2018-04-01T04:04:50.722Z,97158
2018-04-01T04:07:18.178Z,97160
2018-04-01T04:09:45.660Z,97168
2018-04-01T04:12:13.919Z,97164
2018-04-01T04:15:03.656Z,97158
2018-04-01T04:17:31.141Z,97161
2018-04-01T04:19:58.600Z,97170
2018-04-01T04:22:26.072Z,97167
2018-04-01T04:25:01.226Z,97176
2018-04-01T04:27:28.683Z,97183
2018-04-01T04:29:56.915Z,97179
2018-04-01T04:32:24.360Z,97188
2018-04-01T04:34:52.795Z,97190
2018-04-01T04:37:21.062Z,97196
2018-04-01T04:39:48.551Z,97204
2018-04-01T04:42:16.006Z,97202
2018-04-01T04:44:57.015Z,97192
2018-04-01T04:47:24.477Z,97188
2018-04-01T04:49:51.968Z,97201
2018-04-01T04:52:20.207Z,97189
2018-04-01T04:54:47.718Z,97198
2018-04-01T04:57:15.182Z,97203
2018-04-01T04:59:42.653Z,97205
2018-04-01T05:02:11.147Z,97214
2018-04-01T05:04:39.587Z,97209
2018-04-01T05:07:07.765Z,97211
2018-04-01T05:09:35.988Z,97220
2018-04-01T05:12:03.435Z,97219
2018-04-01T05:14:30.994Z,97225
2018-04-01T05:16:58.459Z,97228
2018-04-01T05:19:25.927Z,97230
2018-04-01T05:21:53.390Z,97232
2018-04-01T05:24:20.846Z,97242
2018-04-01T05:26:48.290Z,97235
2018-04-01T05:29:15.779Z,97235
2018-04-01T05:31:43.224Z,97241
2018-04-01T05:34:14.013Z,97247
2018-04-01T05:36:41.502Z,97255
2018-04-01T05:39:08.990Z,97256
2018-04-01T05:41:37.236Z,97257
2018-04-01T05:44:09.058Z,97264
2018-04-01T05:46:37.294Z,97269
2018-04-01T05:49:05.511Z,97276
2018-04-01T05:51:33.022Z,97283
2018-04-01T05:54:00.450Z,97285
2018-04-01T05:56:27.948Z,97289
2018-04-01T05:58:56.207Z,97290
2018-04-01T06:01:24.195Z,97299
2018-04-01T06:03:55.923Z,97313
2018-04-01T06:06:23.398Z,97308
2018-04-01T06:08:50.849Z,97309
2018-04-01T06:11:18.327Z,97310
2018-04-01T06:13:46.907Z,97316
2018-04-01T06:16:15.169Z,97319
2018-04-01T06:18:42.613Z,97318
2018-04-01T06:21:10.067Z,97313
2018-04-01T06:23:38.500Z,97331
2018-04-01T06:26:05.942Z,97333
2018-04-01T06:28:33.452Z,97335
2018-04-01T06:31:00.842Z,97343
2018-04-01T06:33:37.364Z,97343
2018-04-01T06:36:04.795Z,97329
2018-04-01T06:38:32.218Z,97341
2018-04-01T06:41:00.387Z,97345
2018-04-01T06:43:29.793Z,97344
2018-04-01T06:45:57.991Z,97353
2018-04-01T06:48:25.420Z,97356
2018-04-01T06:50:52.809Z,97357
2018-04-01T06:53:20.223Z,97365
2018-04-01T06:55:48.623Z,97374
2018-04-01T06:58:16.797Z,97361
2018-04-01T07:00:44.969Z,97373
2018-04-01T07:03:13.137Z,97368
2018-04-01T07:05:54.945Z,97377
2018-04-01T07:08:23.114Z,97378
2018-04-01T07:10:51.278Z,97378
2018-04-01T07:13:18.764Z,97381
2018-04-01T07:15:50.261Z,97381
2018-04-01T07:18:17.728Z,97388
2018-04-01T07:20:45.224Z,97396
2018-04-01T07:23:12.654Z,97410
2018-04-01T07:25:41.836Z,97395
2018-04-01T07:28:09.269Z,97405
2018-04-01T07:30:36.737Z,97403
2018-04-01T07:33:04.200Z,97412
2018-04-01T07:35:36.402Z,97407
2018-04-01T07:38:04.630Z,97414
2018-04-01T07:40:32.112Z,97428
2018-04-01T07:42:59.557Z,97406
2018-04-01T07:45:38.258Z,97411
2018-04-01T07:48:05.709Z,97433
2018-04-01T07:50:33.183Z,97441
2018-04-01T07:53:00.663Z,97436
2018-04-01T07:55:29.222Z,97437
2018-04-01T07:57:56.682Z,97427
2018-04-01T08:00:24.183Z,97427
2018-04-01T08:02:51.659Z,97429
2018-04-01T08:05:20.087Z,97440
2018-04-01T08:07:47.525Z,97436
2018-04-01T08:10:15.006Z,97448
2018-04-01T08:12:42.510Z,97439
2018-04-01T08:15:14.711Z,97434
2018-04-01T08:17:42.252Z,97432
2018-04-01T08:20:09.806Z,97433
2018-04-01T08:22:37.231Z,97436
2018-04-01T08:25:12.405Z,97446
2018-04-01T08:27:39.840Z,97448
2018-04-01T08:30:07.246Z,97436
2018-04-01T08:32:34.698Z,97425
2018-04-01T08:35:09.818Z,97440
2018-04-01T08:37:37.245Z,97435
2018-04-01T08:40:04.683Z,97438
2018-04-01T08:42:32.150Z,97440
2018-04-01T08:45:01.596Z,97444
2018-04-01T08:47:29.056Z,97450
2018-04-01T08:49:56.465Z,97440
2018-04-01T08:52:23.866Z,97449
2018-04-01T08:54:51.257Z,97447
2018-04-01T08:57:19.422Z,97446
2018-04-01T08:59:46.825Z,97448
2018-04-01T09:02:14.230Z,97436
2018-04-01T09:04:59.124Z,97450
2018-04-01T09:07:26.532Z,97448
2018-04-01T09:09:53.984Z,97429
2018-04-01T09:12:21.473Z,97433
2018-04-01T09:14:50.585Z,97445
2018-04-01T09:17:18.816Z,97459
2018-04-01T09:19:46.335Z,97443
2018-04-01T09:22:13.855Z,97446
2018-04-01T09:24:46.829Z,97447
2018-04-01T09:27:14.265Z,97429
2018-04-01T09:29:41.710Z,97425
2018-04-01T09:32:09.178Z,97431
2018-04-01T09:34:36.642Z,97445
2018-04-01T09:37:04.142Z,97431
2018-04-01T09:39:31.596Z,97433
2018-04-01T09:41:59.808Z,97432
2018-04-01T09:44:58.317Z,97447
2018-04-01T09:47:25.768Z,97468
2018-04-01T09:49:53.229Z,97479
2018-04-01T09:52:20.665Z,97484
2018-04-01T09:55:00.942Z,97477
2018-04-01T09:57:28.358Z,97476
2018-04-01T09:59:55.845Z,97482
2018-04-01T10:02:24.004Z,97467
2018-04-01T10:05:10.923Z,97468
2018-04-01T10:07:39.106Z,97465
2018-04-01T10:10:07.291Z,97467
2018-04-01T10:12:35.473Z,97465
2018-04-01T10:15:08.047Z,97472
2018-04-01T10:17:36.302Z,97477
2018-04-01T10:20:04.575Z,97479
2018-04-01T10:22:33.486Z,97476
2018-04-01T10:25:10.020Z,97485
2018-04-01T10:27:38.193Z,97486
2018-04-01T10:30:06.440Z,97503
2018-04-01T10:32:35.493Z,97498
2018-04-01T10:35:03.766Z,97482
2018-04-01T10:37:32.001Z,97488
2018-04-01T10:40:00.188Z,97494
2018-04-01T10:42:28.402Z,97489
2018-04-01T10:44:56.590Z,97490
2018-04-01T10:47:25.559Z,97485
2018-04-01T10:49:53.758Z,97487
2018-04-01T10:52:22.762Z,97499
2018-04-01T10:54:52.226Z,97496
2018-04-01T10:57:19.755Z,97487
2018-04-01T10:59:47.199Z,97481
2018-04-01T11:02:14.692Z,97489
2018-04-01T11:04:53.608Z,97495
2018-04-01T11:07:21.087Z,97495
2018-04-01T11:09:48.527Z,97513
2018-04-01T11:12:16.018Z,97541
2018-04-01T11:14:45.405Z,97554
2018-04-01T11:17:12.854Z,97548
2018-04-01T11:19:40.309Z,97541
2018-04-01T11:22:07.817Z,97553
2018-04-01T11:24:36.958Z,97557
2018-04-01T11:27:04.435Z,97547
2018-04-01T11:29:31.856Z,97551
2018-04-01T11:31:59.339Z,97546
2018-04-01T11:34:26.757Z,97548
2018-04-01T11:36:54.253Z,97544
2018-04-01T11:39:21.927Z,97538
2018-04-01T11:41:49.345Z,97518
2018-04-01T11:44:18.774Z,97525
2018-04-01T11:46:46.298Z,97554
2018-04-01T11:49:13.776Z,97539
2018-04-01T11:51:41.203Z,97547
2018-04-01T11:54:15.779Z,97552
2018-04-01T11:56:43.264Z,97549
2018-04-01T11:59:10.727Z,97555
2018-04-01T12:01:38.912Z,97540
2018-04-01T12:04:08.312Z,97537
2018-04-01T12:06:35.868Z,97533
2018-04-01T12:09:03.294Z,97533
2018-04-01T12:11:30.694Z,97517
2018-04-01T12:14:19.605Z,97522
2018-04-01T12:16:46.960Z,97513
2018-04-01T12:19:14.361Z,97510
2018-04-01T12:21:41.774Z,97535
2018-04-01T12:24:10.222Z,97552
2018-04-01T12:26:37.679Z,97502
2018-04-01T12:29:05.117Z,97553
2018-04-01T12:31:32.571Z,97524
2018-04-01T12:34:00.039Z,97562
2018-04-01T12:36:27.501Z,97518
2018-04-01T12:38:55.010Z,97539
2018-04-01T12:41:22.476Z,97536
2018-04-01T12:43:49.956Z,97534
2018-04-01T12:46:17.468Z,97527
2018-04-01T12:48:44.941Z,97523
2018-04-01T12:51:13.213Z,97524
2018-04-01T12:53:43.382Z,97499
2018-04-01T12:56:10.853Z,97519
2018-04-01T12:58:38.262Z,97531
2018-04-01T13:01:05.714Z,97531
2018-04-01T13:03:33.165Z,97525
2018-04-01T13:06:01.384Z,97538
2018-04-01T13:08:28.871Z,97527
2018-04-01T13:10:56.318Z,97531
2018-04-01T13:13:23.757Z,97535
2018-04-01T13:15:51.260Z,97542
2018-04-01T13:18:18.673Z,97539
2018-04-01T13:20:46.134Z,97620
2018-04-01T13:23:13.627Z,97641
2018-04-01T13:25:41.102Z,97617
2018-04-01T13:28:09.356Z,97640
2018-04-01T13:30:36.801Z,97638
2018-04-01T13:33:04.370Z,97637
2018-04-01T13:35:33.415Z,97629
2018-04-01T13:38:00.947Z,97643
2018-04-01T13:40:28.408Z,97660
2018-04-01T13:42:55.926Z,97654
2018-04-01T13:45:23.324Z,97659
2018-04-01T13:47:50.774Z,97669
2018-04-01T13:50:18.923Z,97658
2018-04-01T13:52:46.355Z,97645
2018-04-01T13:55:15.713Z,97639
2018-04-01T13:57:43.168Z,97650
2018-04-01T14:00:10.655Z,97633
2018-04-01T14:02:38.161Z,97650
2018-04-01T14:05:27.404Z,97649
2018-04-01T14:07:54.903Z,97639
2018-04-01T14:10:22.362Z,97640
2018-04-01T14:12:49.834Z,97633
2018-04-01T14:15:17.276Z,97647
2018-04-01T14:17:44.758Z,97650
2018-04-01T14:20:12.221Z,97653
2018-04-01T14:22:39.692Z,97651
2018-04-01T14:25:26.696Z,97636
2018-04-01T14:27:54.110Z,97643
2018-04-01T14:30:22.349Z,97648
2018-04-01T14:32:49.824Z,97649
2018-04-01T14:35:19.302Z,97638
2018-04-01T14:37:46.732Z,97650
2018-04-01T14:40:14.213Z,97647
2018-04-01T14:42:41.707Z,97660
2018-04-01T14:45:11.949Z,97660
2018-04-01T14:47:39.435Z,97672
2018-04-01T14:50:06.896Z,97674
2018-04-01T14:52:34.367Z,97678
2018-04-01T14:55:02.815Z,97688
2018-04-01T14:57:30.296Z,97691
2018-04-01T14:59:57.756Z,97672
2018-04-01T15:02:25.174Z,97679
2018-04-01T15:04:52.637Z,97662
2018-04-01T15:07:20.057Z,97654
2018-04-01T15:09:48.339Z,97693
2018-04-01T15:12:16.534Z,97696
2018-04-01T15:14:57.475Z,97702
2018-04-01T15:17:24.984Z,97704
2018-04-01T15:19:52.438Z,97715
2018-04-01T15:22:19.834Z,97709
2018-04-01T15:24:50.409Z,97718
2018-04-01T15:27:17.803Z,97720
2018-04-01T15:29:45.209Z,97718
2018-04-01T15:32:13.353Z,97725
2018-04-01T15:34:40.752Z,97732
2018-04-01T15:37:08.151Z,97730
2018-04-01T15:39:35.652Z,97734
2018-04-01T15:42:03.016Z,97728
2018-04-01T15:44:32.451Z,97743
2018-04-01T15:46:59.934Z,97748
2018-04-01T15:49:27.329Z,97755
2018-04-01T15:51:54.733Z,97749
2018-04-01T15:54:23.013Z,97743
2018-04-01T15:56:50.409Z,97745
2018-04-01T15:59:17.831Z,97747
2018-04-01T16:01:45.242Z,97748
2018-04-01T16:04:17.119Z,97752
2018-04-01T16:06:44.565Z,97759
2018-04-01T16:09:11.978Z,97771
2018-04-01T16:11:39.389Z,97761
2018-04-01T16:14:07.681Z,97769
2018-04-01T16:16:35.174Z,97770
2018-04-01T16:19:03.356Z,97765
2018-04-01T16:21:30.773Z,97778
2018-04-01T16:24:15.187Z,97781
2018-04-01T16:26:42.714Z,97793
2018-04-01T16:29:10.894Z,97790
2018-04-01T16:31:38.299Z,97787
2018-04-01T16:34:05.845Z,97779
2018-04-01T16:36:33.311Z,97783
2018-04-01T16:39:00.747Z,97784
2018-04-01T16:41:28.199Z,97784
2018-04-01T16:43:56.611Z,97787
2018-04-01T16:46:24.087Z,97794
2018-04-01T16:48:51.579Z,97796
2018-04-01T16:51:19.028Z,97791
2018-04-01T16:53:49.149Z,97801
2018-04-01T16:56:17.365Z,97802
2018-04-01T16:58:44.765Z,97810
2018-04-01T17:01:12.917Z,97826
2018-04-01T17:03:49.424Z,97827
2018-04-01T17:06:16.805Z,97827
2018-04-01T17:08:44.218Z,97831
2018-04-01T17:11:12.464Z,97832
2018-04-01T17:13:39.967Z,97843
2018-04-01T17:16:07.401Z,97840
2018-04-01T17:18:35.620Z,97845
2018-04-01T17:21:03.090Z,97840
2018-04-01T17:23:30.561Z,97845
2018-04-01T17:25:58.067Z,97849
2018-04-01T17:28:25.534Z,97858
2018-04-01T17:30:52.966Z,97868
2018-04-01T17:33:21.210Z,97873
2018-04-01T17:35:49.615Z,97859
2018-04-01T17:38:17.855Z,97867
2018-04-01T17:40:45.261Z,97866
2018-04-01T17:43:12.770Z,97882
2018-04-01T17:45:40.221Z,97876
2018-04-01T17:48:07.702Z,97884
2018-04-01T17:50:35.109Z,97886
2018-04-01T17:53:02.550Z,97895
2018-04-01T17:55:41.182Z,97906
2018-04-01T17:58:09.413Z,97903
2018-04-01T18:00:36.857Z,97912
2018-04-01T18:03:04.293Z,97910
2018-04-01T18:05:51.551Z,97916
2018-04-01T18:08:19.006Z,97918
2018-04-01T18:10:46.470Z,97927
2018-04-01T18:13:14.669Z,97932
2018-04-01T18:15:56.756Z,97939
2018-04-01T18:18:24.925Z,97948
2018-04-01T18:20:53.168Z,97941
2018-04-01T18:23:20.635Z,97941
2018-04-01T18:26:16.097Z,97960
2018-04-01T18:28:43.479Z,97966
2018-04-01T18:31:10.969Z,97969
2018-04-01T18:33:42.178Z,97981
2018-04-01T18:36:09.641Z,97971
2018-04-01T18:38:37.149Z,97969
2018-04-01T18:41:04.565Z,97982
2018-04-01T18:43:31.985Z,97979
2018-04-01T18:45:59.414Z,97992
2018-04-01T18:48:26.794Z,97994
2018-04-01T18:50:54.205Z,98004
2018-04-01T18:53:21.588Z,98012
2018-04-01T18:55:49.050Z,98012
2018-04-01T18:58:16.494Z,98009
2018-04-01T19:00:43.962Z,98017
2018-04-01T19:03:11.378Z,98003
2018-04-01T19:05:43.593Z,98009
2018-04-01T19:08:11.024Z,98009
2018-04-01T19:10:39.212Z,98014
2018-04-01T19:13:06.702Z,98028
2018-04-01T19:15:37.550Z,98007
2018-04-01T19:18:05.768Z,98013
2018-04-01T19:20:33.966Z,98022
2018-04-01T19:23:02.174Z,98024
2018-04-01T19:25:43.761Z,98018
2018-04-01T19:28:12.014Z,98028
2018-04-01T19:30:40.198Z,98031
2018-04-01T19:33:08.383Z,98038
2018-04-01T19:35:41.986Z,98040
2018-04-01T19:38:10.244Z,98045
2018-04-01T19:40:38.393Z,98051
2018-04-01T19:43:06.569Z,98050
2018-04-01T19:45:34.759Z,98050
2018-04-01T19:48:02.946Z,98053
2018-04-01T19:50:31.178Z,98059
2018-04-01T19:53:00.164Z,98062
2018-04-01T19:55:44.947Z,98064
2018-04-01T19:58:13.106Z,98060
2018-04-01T20:00:42.067Z,98070
2018-04-01T20:03:10.307Z,98077
2018-04-01T20:05:57.529Z,98075
2018-04-01T20:08:26.461Z,98078
2018-04-01T20:10:54.702Z,98078
2018-04-01T20:13:22.974Z,98084
2018-04-01T20:15:51.176Z,98087
2018-04-01T20:18:19.380Z,98086
2018-04-01T20:20:48.391Z,98088
2018-04-01T20:23:16.591Z,98085
2018-04-01T20:25:45.810Z,98091
2018-04-01T20:28:14.090Z,98077
2018-04-01T20:30:42.316Z,98085
2018-04-01T20:33:10.520Z,98099
2018-04-01T20:35:46.469Z,98094
2018-04-01T20:38:14.753Z,98089
2018-04-01T20:40:42.949Z,98100
2018-04-01T20:43:11.171Z,98101
2018-04-01T20:45:43.183Z,98095
2018-04-01T20:48:11.373Z,98102
2018-04-01T20:50:39.598Z,98096
2018-04-01T20:53:07.821Z,98096
2018-04-01T20:55:43.131Z,98099
2018-04-01T20:58:11.372Z,98111
2018-04-01T21:00:39.594Z,98118
2018-04-01T21:03:07.797Z,98113
2018-04-01T21:05:36.776Z,98115
2018-04-01T21:08:05.505Z,98112
2018-04-01T21:10:33.731Z,98116
2018-04-01T21:13:01.894Z,98116
2018-04-01T21:15:32.117Z,98108
2018-04-01T21:18:00.378Z,98115
2018-04-01T21:20:28.678Z,98112
2018-04-01T21:22:56.904Z,98123
2018-04-01T21:25:32.264Z,98114
2018-04-01T21:28:00.460Z,98119
2018-04-01T21:30:28.744Z,98117
2018-04-01T21:32:56.980Z,98124
2018-04-01T21:35:29.258Z,98129
2018-04-01T21:37:57.483Z,98123
2018-04-01T21:40:26.529Z,98132
2018-04-01T21:42:54.753Z,98130
2018-04-01T21:45:24.708Z,98128
2018-04-01T21:47:52.919Z,98133
2018-04-01T21:50:21.136Z,98131
2018-04-01T21:52:49.336Z,98130
2018-04-01T21:55:18.565Z,98134
2018-04-01T21:57:46.822Z,98127
2018-04-01T22:00:15.044Z,98130
2018-04-01T22:02:43.298Z,98137
2018-04-01T22:05:39.371Z,98133
2018-04-01T22:08:07.606Z,98144
2018-04-01T22:10:36.605Z,98134
2018-04-01T22:13:05.623Z,98144
2018-04-01T22:15:43.916Z,98152
2018-04-01T22:18:12.912Z,98153
2018-04-01T22:20:41.920Z,98142
2018-04-01T22:23:13.963Z,98141
2018-04-01T22:25:50.250Z,98147
2018-04-01T22:28:18.488Z,98141
2018-04-01T22:30:46.670Z,98151
2018-04-01T22:33:15.655Z,98136
2018-04-01T22:35:43.890Z,98142
2018-04-01T22:38:12.125Z,98142
2018-04-01T22:40:41.074Z,98152
2018-04-01T22:43:09.329Z,98152
2018-04-01T22:45:51.353Z,98148
2018-04-01T22:48:19.631Z,98153
2018-04-01T22:50:47.833Z,98147
2018-04-01T22:53:16.806Z,98144
2018-04-01T22:55:56.697Z,98144
2018-04-01T22:58:24.901Z,98156
2018-04-01T23:00:53.089Z,98157
2018-04-01T23:03:21.306Z,98148
2018-04-01T23:06:36.868Z,98133
2018-04-01T23:09:05.130Z,98146
2018-04-01T23:11:33.317Z,98152
2018-04-01T23:14:01.561Z,98146
2018-04-01T23:16:30.554Z,98153
2018-04-01T23:18:58.814Z,98156
2018-04-01T23:21:26.981Z,98151
2018-04-01T23:23:55.247Z,98156
2018-04-01T23:26:23.475Z,98160
2018-04-01T23:28:51.711Z,98161
2018-04-01T23:31:19.944Z,98156
2018-04-01T23:33:49.892Z,98150
2018-04-01T23:36:18.081Z,98149
2018-04-01T23:38:46.345Z,98159
2018-04-01T23:41:14.562Z,98158
2018-04-01T23:43:43.729Z,98155
2018-04-01T23:46:11.950Z,98159
2018-04-01T23:48:40.151Z,98164
2018-04-01T23:51:08.366Z,98166
2018-04-01T23:53:36.576Z,98174
2018-04-01T23:56:05.625Z,98178
2018-04-01T23:58:33.814Z,98180
